Time;durP1;ratioP1;P1;durP2;ratioP2;P2;SDS_P1;SDS_P2;PMS_P1;PMS_P2;Temp;Humidity;BMP_temperature;BMP_pressure;BME280_temperature;BME280_humidity;BME280_pressure;Samples;Min_cycle;Max_cycle;Signal;HPM_P1;HPM_P2
2023/11/12 00:01:11;;;;;;;1.60;1.13;;;;;;;;;;4937655;28;20043;-61
2023/11/12 00:03:36;;;;;;;2.03;0.57;;;;;;;;;;4922967;29;20577;-59
2023/11/12 00:06:02;;;;;;;1.23;1.13;;;;;;;;;;4913967;29;20031;-60
2023/11/12 00:08:27;;;;;;;0.50;0.50;;;;;;;;;;4939327;29;20355;-60
2023/11/12 00:10:53;;;;;;;1.13;1.03;;;;;;;;;;4928571;29;20039;-60
2023/11/12 00:13:18;;;;;;;0.37;0.37;;;;;;;;;;4926176;29;20533;-61
2023/11/12 00:15:43;;;;;;;0.60;0.60;;;;;;;;;;4926125;29;20448;-64
2023/11/12 00:18:08;;;;;;;0.60;0.60;;;;;;;;;;4927692;29;20052;-63
2023/11/12 00:20:34;;;;;;;1.03;0.83;;;;;;;;;;4920456;29;20027;-65
2023/11/12 00:23:00;;;;;;;1.17;0.80;;;;;;;;;;4929570;29;20071;-63
2023/11/12 00:25:25;;;;;;;1.37;1.27;;;;;;;;;;4927955;29;20031;-64
2023/11/12 00:27:51;;;;;;;0.40;0.40;;;;;;;;;;4927308;29;20043;-64
2023/11/12 00:30:17;;;;;;;0.63;0.63;;;;;;;;;;4919894;29;20101;-64
2023/11/12 00:32:43;;;;;;;0.50;0.50;;;;;;;;;;4928499;29;20040;-63
2023/11/12 00:35:09;;;;;;;0.33;0.33;;;;;;;;;;4925682;29;20036;-62
2023/11/12 00:37:34;;;;;;;2.43;1.07;;;;;;;;;;4924568;29;20138;-63
2023/11/12 00:40:00;;;;;;;0.60;0.60;;;;;;;;;;4919265;29;20119;-63
2023/11/12 00:42:25;;;;;;;0.43;0.43;;;;;;;;;;4931039;29;20083;-63
2023/11/12 00:44:51;;;;;;;1.23;1.00;;;;;;;;;;4915589;29;20064;-63
2023/11/12 00:47:16;;;;;;;0.80;0.80;;;;;;;;;;4922277;29;20132;-64
2023/11/12 00:49:42;;;;;;;0.73;0.60;;;;;;;;;;4917635;29;20036;-63
2023/11/12 00:52:07;;;;;;;1.87;1.67;;;;;;;;;;4926164;29;20119;-64
2023/11/12 00:54:32;;;;;;;0.73;0.70;;;;;;;;;;4923764;29;20126;-61
2023/11/12 00:56:58;;;;;;;1.27;1.17;;;;;;;;;;4924574;29;20043;-63
2023/11/12 00:59:23;;;;;;;0.30;0.30;;;;;;;;;;4921186;29;20039;-61
2023/11/12 01:01:48;;;;;;;1.90;1.07;;;;;;;;;;4911191;29;20028;-63
2023/11/12 01:04:15;;;;;;;8.90;2.60;;;;;;;;;;4928903;29;20024;-64
2023/11/12 01:06:40;;;;;;;0.60;0.60;;;;;;;;;;4921800;29;20024;-63
2023/11/12 01:09:08;;;;;;;0.60;0.60;;;;;;;;;;4923783;29;20032;-63
2023/11/12 01:11:33;;;;;;;0.77;0.70;;;;;;;;;;4917916;29;20119;-63
2023/11/12 01:13:58;;;;;;;0.67;0.67;;;;;;;;;;4911244;29;20163;-61
2023/11/12 01:16:23;;;;;;;1.13;1.00;;;;;;;;;;4914760;29;20031;-64
2023/11/12 01:18:49;;;;;;;1.13;0.93;;;;;;;;;;4930141;29;20443;-62
2023/11/12 01:21:14;;;;;;;1.30;1.03;;;;;;;;;;4928844;29;20177;-63
2023/11/12 01:23:39;;;;;;;0.70;0.70;;;;;;;;;;4922781;29;20091;-64
2023/11/12 01:26:05;;;;;;;1.37;1.27;;;;;;;;;;4937941;29;20190;-61
2023/11/12 01:28:34;;;;;;;1.70;0.73;;;;;;;;;;4931719;29;20374;-62
2023/11/12 01:31:00;;;;;;;0.57;0.57;;;;;;;;;;4925308;29;20031;-62
2023/11/12 01:33:27;;;;;;;0.70;0.70;;;;;;;;;;4932126;29;20054;-59
2023/11/12 01:35:53;;;;;;;0.50;0.50;;;;;;;;;;4924288;29;20472;-60
2023/11/12 01:38:18;;;;;;;3.20;1.50;;;;;;;;;;4936334;29;20051;-63
2023/11/12 01:40:44;;;;;;;0.60;0.60;;;;;;;;;;4926903;29;20106;-62
2023/11/12 01:43:09;;;;;;;0.40;0.40;;;;;;;;;;4938865;29;20031;-64
2023/11/12 01:45:35;;;;;;;1.83;1.60;;;;;;;;;;4921199;29;20027;-63
2023/11/12 01:48:01;;;;;;;1.10;1.00;;;;;;;;;;4937934;29;20031;-60
2023/11/12 01:50:27;;;;;;;3.63;1.83;;;;;;;;;;4928503;29;20165;-62
2023/11/12 01:52:52;;;;;;;1.10;1.00;;;;;;;;;;4938094;29;20540;-62
2023/11/12 01:55:19;;;;;;;1.27;1.10;;;;;;;;;;4936229;29;20031;-63
2023/11/12 01:57:45;;;;;;;1.33;1.20;;;;;;;;;;4931675;29;20050;-69
2023/11/12 02:00:11;;;;;;;0.40;0.40;;;;;;;;;;4937804;29;20534;-68
2023/11/12 02:02:39;;;;;;;0.87;0.77;;;;;;;;;;4938522;29;20028;-68
2023/11/12 02:05:08;;;;;;;2.10;1.30;;;;;;;;;;4929733;29;20028;-68
2023/11/12 02:07:37;;;;;;;1.13;1.03;;;;;;;;;;4930217;29;20016;-69
2023/11/12 02:10:14;;;;;;;1.40;1.10;;;;;;;;;;4929560;29;20030;-68
2023/11/12 02:12:43;;;;;;;1.93;1.73;;;;;;;;;;4932632;29;20440;-69
2023/11/12 02:15:09;;;;;;;1.70;1.20;;;;;;;;;;4943826;29;20474;-68
2023/11/12 02:17:34;;;;;;;0.50;0.50;;;;;;;;;;4944260;29;20032;-69
2023/11/12 02:20:04;;;;;;;2.40;1.70;;;;;;;;;;4934501;29;20110;-68
2023/11/12 02:22:29;;;;;;;1.20;1.10;;;;;;;;;;4924306;29;20495;-68
2023/11/12 02:24:54;;;;;;;0.63;0.63;;;;;;;;;;4928532;29;20023;-68
2023/11/12 02:27:19;;;;;;;2.13;1.57;;;;;;;;;;4930283;29;20023;-69
2023/11/12 02:29:48;;;;;;;1.23;1.13;;;;;;;;;;4929177;29;20053;-68
2023/11/12 02:32:13;;;;;;;0.57;0.57;;;;;;;;;;4929079;29;20019;-68
2023/11/12 02:34:39;;;;;;;1.53;1.43;;;;;;;;;;4928749;29;20027;-68
2023/11/12 02:37:04;;;;;;;1.90;1.10;;;;;;;;;;4928440;29;20392;-68
2023/11/12 02:39:29;;;;;;;1.57;1.37;;;;;;;;;;4928376;29;20305;-68
2023/11/12 02:41:55;;;;;;;0.67;0.67;;;;;;;;;;4928633;29;20043;-68
2023/11/12 02:44:21;;;;;;;1.33;1.23;;;;;;;;;;4928250;29;20023;-68
2023/11/12 02:46:46;;;;;;;1.40;1.30;;;;;;;;;;4928510;29;20454;-68
2023/11/12 02:49:30;;;;;;;0.70;0.70;;;;;;;;;;4928738;29;20046;-68
2023/11/12 02:51:55;;;;;;;1.03;0.93;;;;;;;;;;4927556;29;20492;-68
2023/11/12 02:54:21;;;;;;;0.87;0.87;;;;;;;;;;4928267;29;20023;-68
2023/11/12 02:56:46;;;;;;;0.77;0.77;;;;;;;;;;4929316;29;20024;-69
2023/11/12 02:59:11;;;;;;;1.07;0.97;;;;;;;;;;4931715;29;20027;-69
2023/11/12 03:01:36;;;;;;;0.67;0.67;;;;;;;;;;4927866;29;20024;-69
2023/11/12 03:04:02;;;;;;;0.30;0.30;;;;;;;;;;4927409;29;20027;-69
2023/11/12 03:06:27;;;;;;;0.30;0.30;;;;;;;;;;4927941;29;20110;-69
2023/11/12 03:08:54;;;;;;;0.80;0.80;;;;;;;;;;4927803;29;20383;-69
2023/11/12 03:11:19;;;;;;;0.30;0.30;;;;;;;;;;4928272;29;20030;-69
2023/11/12 03:13:44;;;;;;;0.47;0.47;;;;;;;;;;4910639;29;20384;-69
2023/11/12 03:16:12;;;;;;;1.43;1.33;;;;;;;;;;4926657;29;20027;-69
2023/11/12 03:18:38;;;;;;;0.87;0.57;;;;;;;;;;4927983;29;20370;-69
2023/11/12 03:21:04;;;;;;;0.77;0.77;;;;;;;;;;4927862;29;20047;-69
2023/11/12 03:23:29;;;;;;;1.00;0.90;;;;;;;;;;4927577;29;20034;-69
2023/11/12 03:25:55;;;;;;;0.70;0.63;;;;;;;;;;4927976;29;20735;-69
2023/11/12 03:28:21;;;;;;;1.13;1.03;;;;;;;;;;4927874;29;20508;-68
2023/11/12 03:30:46;;;;;;;0.40;0.40;;;;;;;;;;4927071;29;20042;-68
2023/11/12 03:33:11;;;;;;;1.03;0.90;;;;;;;;;;4910310;29;20035;-68
2023/11/12 03:35:37;;;;;;;0.43;0.43;;;;;;;;;;4927397;29;20468;-68
2023/11/12 03:38:02;;;;;;;0.57;0.57;;;;;;;;;;4927646;29;20045;-69
2023/11/12 03:40:27;;;;;;;1.90;1.33;;;;;;;;;;4930134;29;20020;-68
2023/11/12 03:42:52;;;;;;;0.50;0.50;;;;;;;;;;4926012;29;20295;-68
2023/11/12 03:45:19;;;;;;;1.57;1.17;;;;;;;;;;4927664;29;20031;-69
2023/11/12 03:47:45;;;;;;;0.60;0.60;;;;;;;;;;4911148;29;20102;-68
2023/11/12 03:50:10;;;;;;;1.43;1.10;;;;;;;;;;4927611;29;20118;-69
2023/11/12 03:52:35;;;;;;;0.80;0.80;;;;;;;;;;4927508;29;20152;-69
2023/11/12 03:55:06;;;;;;;1.30;1.20;;;;;;;;;;4926741;29;20028;-68
2023/11/12 03:57:31;;;;;;;0.30;0.30;;;;;;;;;;4927068;29;20389;-68
2023/11/12 03:59:57;;;;;;;0.93;0.73;;;;;;;;;;4929494;29;20082;-68
2023/11/12 04:02:22;;;;;;;0.33;0.33;;;;;;;;;;4927395;29;20030;-68
2023/11/12 04:04:47;;;;;;;2.17;1.23;;;;;;;;;;4926642;29;20059;-68
2023/11/12 04:07:13;;;;;;;2.83;1.17;;;;;;;;;;4927280;29;20015;-68
2023/11/12 04:09:39;;;;;;;0.67;0.63;;;;;;;;;;4927331;29;20024;-69
2023/11/12 04:12:05;;;;;;;1.17;0.90;;;;;;;;;;4927041;29;20044;-68
2023/11/12 04:14:30;;;;;;;5.20;1.93;;;;;;;;;;4926905;29;20067;-68
2023/11/12 04:16:55;;;;;;;0.60;0.60;;;;;;;;;;4927189;29;20024;-68
2023/11/12 04:19:21;;;;;;;2.17;1.53;;;;;;;;;;4909923;29;20023;-69
2023/11/12 04:21:47;;;;;;;2.43;2.00;;;;;;;;;;4929747;29;20058;-68
2023/11/12 04:24:12;;;;;;;3.03;1.30;;;;;;;;;;4926973;29;20752;-68
2023/11/12 04:26:37;;;;;;;0.90;0.83;;;;;;;;;;4926826;29;20071;-68
2023/11/12 04:29:06;;;;;;;1.50;1.40;;;;;;;;;;4926620;29;20034;-68
2023/11/12 04:31:32;;;;;;;2.40;1.40;;;;;;;;;;4926864;29;20032;-68
2023/11/12 04:33:57;;;;;;;1.73;1.63;;;;;;;;;;4927088;29;20193;-68
2023/11/12 04:36:22;;;;;;;1.67;1.57;;;;;;;;;;4926878;29;20059;-68
2023/11/12 04:38:48;;;;;;;2.07;1.67;;;;;;;;;;4926508;29;20393;-68
2023/11/12 04:41:14;;;;;;;2.30;1.30;;;;;;;;;;4926495;29;20405;-68
2023/11/12 04:43:40;;;;;;;0.73;0.73;;;;;;;;;;4926871;29;20051;-70
2023/11/12 04:46:06;;;;;;;3.53;1.77;;;;;;;;;;4926430;29;20035;-69
2023/11/12 04:48:31;;;;;;;4.97;1.87;;;;;;;;;;4924715;29;20495;-68
2023/11/12 04:50:56;;;;;;;1.50;1.33;;;;;;;;;;4926928;29;20032;-67
2023/11/12 04:53:22;;;;;;;1.47;1.37;;;;;;;;;;4926724;29;20528;-69
2023/11/12 04:55:47;;;;;;;1.33;1.23;;;;;;;;;;4926430;29;20711;-69
2023/11/12 04:58:12;;;;;;;3.43;1.37;;;;;;;;;;4926748;29;20047;-66
2023/11/12 05:00:39;;;;;;;3.70;2.63;;;;;;;;;;4926273;29;20027;-66
2023/11/12 05:03:04;;;;;;;2.80;1.67;;;;;;;;;;4926150;29;20028;-67
2023/11/12 05:05:30;;;;;;;3.90;2.40;;;;;;;;;;4926923;29;20425;-66
2023/11/12 05:07:56;;;;;;;2.23;1.33;;;;;;;;;;4931834;28;20032;-66
2023/11/12 05:10:21;;;;;;;3.57;2.20;;;;;;;;;;4930187;29;20071;-66
2023/11/12 05:12:47;;;;;;;1.20;1.10;;;;;;;;;;4930041;29;20035;-67
2023/11/12 05:15:12;;;;;;;2.43;1.80;;;;;;;;;;4929964;29;20288;-67
2023/11/12 05:17:37;;;;;;;2.20;1.80;;;;;;;;;;4930255;29;20103;-66
2023/11/12 05:20:03;;;;;;;2.83;1.23;;;;;;;;;;4929683;29;20074;-66
2023/11/12 05:22:29;;;;;;;1.17;1.07;;;;;;;;;;4930210;29;20016;-65
2023/11/12 05:24:54;;;;;;;1.87;1.73;;;;;;;;;;4929914;29;20047;-66
2023/11/12 05:27:19;;;;;;;2.43;2.23;;;;;;;;;;4929704;29;20440;-65
2023/11/12 05:29:45;;;;;;;6.83;2.80;;;;;;;;;;4929952;29;20034;-68
2023/11/12 05:32:10;;;;;;;1.60;1.40;;;;;;;;;;4930929;29;20024;-68
2023/11/12 05:34:35;;;;;;;1.10;1.00;;;;;;;;;;4931692;29;20035;-68
2023/11/12 05:37:01;;;;;;;2.83;1.40;;;;;;;;;;4927541;29;20024;-67
2023/11/12 05:39:26;;;;;;;2.07;1.87;;;;;;;;;;4931268;29;20103;-68
2023/11/12 05:41:51;;;;;;;1.13;1.03;;;;;;;;;;4929601;29;20126;-66
2023/11/12 05:44:16;;;;;;;3.13;2.00;;;;;;;;;;4931393;29;20104;-66
2023/11/12 05:46:42;;;;;;;2.30;1.97;;;;;;;;;;4929224;29;20228;-66
2023/11/12 05:49:07;;;;;;;3.67;2.43;;;;;;;;;;4929756;29;20036;-68
2023/11/12 05:51:32;;;;;;;3.40;1.87;;;;;;;;;;4929375;29;20511;-67
2023/11/12 05:53:57;;;;;;;2.73;1.53;;;;;;;;;;4929716;29;20487;-69
2023/11/12 05:56:22;;;;;;;1.77;1.67;;;;;;;;;;4929211;29;20381;-68
2023/11/12 05:58:48;;;;;;;1.20;1.10;;;;;;;;;;4929427;29;20442;-68
2023/11/12 06:01:13;;;;;;;1.80;1.63;;;;;;;;;;4927910;29;20118;-65
2023/11/12 06:03:38;;;;;;;1.33;1.23;;;;;;;;;;4929368;29;20031;-65
2023/11/12 06:06:04;;;;;;;5.20;3.13;;;;;;;;;;4932222;29;20078;-65
2023/11/12 06:08:29;;;;;;;0.97;0.90;;;;;;;;;;4929310;29;20354;-65
2023/11/12 06:10:56;;;;;;;2.47;2.27;;;;;;;;;;4929190;29;20413;-69
2023/11/12 06:13:21;;;;;;;1.53;1.43;;;;;;;;;;4929240;29;20112;-71
2023/11/12 06:15:47;;;;;;;2.30;1.60;;;;;;;;;;4929108;29;20113;-65
2023/11/12 06:18:12;;;;;;;6.73;2.47;;;;;;;;;;4928269;29;20385;-67
2023/11/12 06:20:38;;;;;;;3.63;2.33;;;;;;;;;;4928381;29;20050;-65
2023/11/12 06:23:03;;;;;;;3.00;2.33;;;;;;;;;;4929369;29;20106;-66
2023/11/12 06:25:28;;;;;;;1.57;1.47;;;;;;;;;;4929070;29;20310;-65
2023/11/12 06:27:54;;;;;;;3.43;2.70;;;;;;;;;;4928910;29;20027;-66
2023/11/12 06:30:19;;;;;;;4.63;2.40;;;;;;;;;;4931982;29;20118;-69
2023/11/12 06:32:46;;;;;;;5.83;2.77;;;;;;;;;;4929140;29;20023;-66
2023/11/12 06:35:11;;;;;;;2.10;1.67;;;;;;;;;;4928046;29;20043;-65
2023/11/12 06:37:37;;;;;;;2.23;2.03;;;;;;;;;;4927759;29;20396;-65
2023/11/12 06:40:03;;;;;;;1.57;1.37;;;;;;;;;;4928824;29;20872;-67
2023/11/12 06:42:28;;;;;;;5.33;3.40;;;;;;;;;;4927885;29;20444;-65
2023/11/12 06:44:53;;;;;;;2.33;1.97;;;;;;;;;;4928769;29;20103;-66
2023/11/12 06:47:19;;;;;;;2.07;1.57;;;;;;;;;;4928529;29;20468;-65
2023/11/12 06:49:44;;;;;;;1.97;1.83;;;;;;;;;;4927873;29;20400;-66
2023/11/12 06:52:10;;;;;;;1.67;1.37;;;;;;;;;;4928423;29;20031;-66
2023/11/12 06:54:35;;;;;;;1.10;1.00;;;;;;;;;;4928086;29;20031;-66
2023/11/12 06:57:00;;;;;;;3.77;2.43;;;;;;;;;;4928640;29;20030;-66
2023/11/12 06:59:25;;;;;;;2.40;1.87;;;;;;;;;;4928432;29;20376;-65
2023/11/12 07:01:51;;;;;;;2.00;1.77;;;;;;;;;;4928276;29;20032;-65
2023/11/12 07:04:16;;;;;;;1.20;1.10;;;;;;;;;;4927947;29;20035;-66
2023/11/12 07:06:42;;;;;;;1.60;1.50;;;;;;;;;;4928309;29;20125;-65
2023/11/12 07:09:08;;;;;;;2.60;1.73;;;;;;;;;;4927471;29;20556;-67
2023/11/12 07:11:33;;;;;;;2.77;2.13;;;;;;;;;;4930080;29;20051;-66
2023/11/12 07:13:58;;;;;;;6.40;2.73;;;;;;;;;;4928344;29;20031;-65
2023/11/12 07:16:24;;;;;;;3.20;2.67;;;;;;;;;;4927728;29;20059;-65
2023/11/12 07:18:50;;;;;;;2.10;1.80;;;;;;;;;;4928175;29;20030;-65
2023/11/12 07:21:35;;;;;;;2.50;2.00;;;;;;;;;;4927917;29;20037;-65
2023/11/12 07:24:01;;;;;;;8.13;3.80;;;;;;;;;;4927386;29;20441;-66
2023/11/12 07:26:26;;;;;;;1.37;1.27;;;;;;;;;;4927582;29;20530;-66
2023/11/12 07:28:52;;;;;;;1.17;1.07;;;;;;;;;;4927454;29;20105;-67
2023/11/12 07:31:19;;;;;;;23.97;3.67;;;;;;;;;;4926986;29;20023;-67
2023/11/12 07:33:45;;;;;;;4.63;2.17;;;;;;;;;;4927887;29;20059;-66
2023/11/12 07:36:12;;;;;;;3.33;2.43;;;;;;;;;;4927267;29;20082;-66
2023/11/12 07:38:37;;;;;;;3.07;2.30;;;;;;;;;;4928969;29;20024;-67
2023/11/12 07:41:03;;;;;;;2.17;1.80;;;;;;;;;;4926602;29;20054;-66
2023/11/12 07:43:28;;;;;;;4.97;2.33;;;;;;;;;;4927005;29;20028;-65
2023/11/12 07:45:53;;;;;;;2.73;1.87;;;;;;;;;;4927391;29;20405;-69
2023/11/12 07:48:19;;;;;;;5.83;4.10;;;;;;;;;;4927808;29;20027;-66
2023/11/12 07:50:44;;;;;;;1.43;1.33;;;;;;;;;;4927578;29;20585;-66
2023/11/12 07:53:09;;;;;;;0.97;0.87;;;;;;;;;;4927096;29;20466;-67
2023/11/12 07:55:34;;;;;;;4.03;2.67;;;;;;;;;;4909923;29;20555;-66
2023/11/12 07:57:59;;;;;;;3.00;2.53;;;;;;;;;;4927549;29;20015;-67
2023/11/12 08:00:25;;;;;;;2.07;1.87;;;;;;;;;;4926884;29;20023;-66
2023/11/12 08:02:51;;;;;;;2.37;1.83;;;;;;;;;;4927032;29;20038;-67
2023/11/12 08:05:18;;;;;;;1.83;1.60;;;;;;;;;;4927411;29;20480;-66
2023/11/12 08:07:44;;;;;;;12.93;2.60;;;;;;;;;;4927153;29;20020;-67
2023/11/12 08:10:09;;;;;;;59.10;24.53;;;;;;;;;;4926865;29;20024;-67
2023/11/12 08:12:35;;;;;;;66.33;24.83;;;;;;;;;;4929580;29;20087;-67
2023/11/12 08:15:00;;;;;;;57.50;23.80;;;;;;;;;;4926799;29;20034;-67
2023/11/12 08:17:25;;;;;;;57.43;22.83;;;;;;;;;;4926330;29;20027;-68
2023/11/12 08:19:52;;;;;;;58.53;23.93;;;;;;;;;;4926780;29;20062;-66
2023/11/12 08:22:17;;;;;;;57.03;22.57;;;;;;;;;;4926921;29;20083;-67
2023/11/12 08:24:42;;;;;;;53.23;23.10;;;;;;;;;;4927109;29;20027;-67
2023/11/12 08:27:07;;;;;;;54.80;22.70;;;;;;;;;;4926932;29;20580;-67
2023/11/12 08:29:34;;;;;;;51.37;21.40;;;;;;;;;;4927312;29;20448;-68
2023/11/12 08:32:00;;;;;;;64.33;27.43;;;;;;;;;;4926784;29;20030;-67
2023/11/12 08:34:25;;;;;;;59.87;27.67;;;;;;;;;;4926268;29;20485;-66
2023/11/12 08:36:50;;;;;;;61.27;27.23;;;;;;;;;;4926791;29;20046;-67
2023/11/12 08:39:16;;;;;;;59.53;27.83;;;;;;;;;;4930664;29;20111;-66
2023/11/12 08:41:48;;;;;;;58.77;26.83;;;;;;;;;;4926499;29;20043;-67
2023/11/12 08:44:13;;;;;;;57.33;27.02;;;;;;;;;;4913617;29;20026;-66
2023/11/12 08:46:38;;;;;;;66.03;27.10;;;;;;;;;;4930764;29;20020;-66
2023/11/12 08:49:06;;;;;;;56.57;27.43;;;;;;;;;;4930349;29;20051;-67
2023/11/12 08:51:31;;;;;;;57.17;26.50;;;;;;;;;;4913257;29;20062;-66
2023/11/12 08:53:56;;;;;;;58.23;26.63;;;;;;;;;;4930067;29;20063;-67
2023/11/12 08:56:22;;;;;;;53.40;26.43;;;;;;;;;;4930832;29;20453;-66
2023/11/12 08:58:47;;;;;;;55.97;26.73;;;;;;;;;;4930767;29;20476;-67
2023/11/12 09:01:14;;;;;;;50.87;26.17;;;;;;;;;;4930286;29;20024;-67
2023/11/12 09:03:39;;;;;;;50.03;24.60;;;;;;;;;;4929958;29;20031;-67
2023/11/12 09:06:05;;;;;;;49.23;25.03;;;;;;;;;;4930280;29;20023;-67
2023/11/12 09:08:30;;;;;;;42.43;23.33;;;;;;;;;;4934251;29;20492;-67
2023/11/12 09:10:56;;;;;;;40.87;22.90;;;;;;;;;;4930519;29;20095;-67
2023/11/12 09:13:21;;;;;;;39.83;22.60;;;;;;;;;;4929922;29;20032;-66
2023/11/12 09:15:47;;;;;;;37.87;21.70;;;;;;;;;;4929965;29;20027;-66
2023/11/12 09:18:12;;;;;;;41.27;23.23;;;;;;;;;;4929696;29;20020;-66
2023/11/12 09:20:37;;;;;;;44.53;23.17;;;;;;;;;;4932780;29;20066;-67
2023/11/12 09:23:03;;;;;;;43.47;23.50;;;;;;;;;;4933482;29;20322;-68
2023/11/12 09:25:28;;;;;;;42.60;23.33;;;;;;;;;;4929860;29;20502;-66
2023/11/12 09:27:55;;;;;;;42.57;21.60;;;;;;;;;;4930131;29;20440;-68
2023/11/12 09:30:21;;;;;;;49.93;25.67;;;;;;;;;;4930248;29;20042;-66
2023/11/12 09:32:46;;;;;;;44.07;23.33;;;;;;;;;;4930197;29;20020;-67
2023/11/12 09:35:11;;;;;;;51.90;26.00;;;;;;;;;;4929752;29;20401;-68
2023/11/12 09:37:37;;;;;;;49.70;26.20;;;;;;;;;;4929813;29;20500;-65
2023/11/12 09:40:07;;;;;;;51.90;26.50;;;;;;;;;;4929685;29;20020;-65
2023/11/12 09:42:36;;;;;;;49.20;25.63;;;;;;;;;;4929271;29;20075;-66
2023/11/12 09:45:05;;;;;;;51.20;26.07;;;;;;;;;;4933687;29;20102;-66
2023/11/12 09:47:57;;;;;;;54.13;25.50;;;;;;;;;;4929459;29;20028;-68
2023/11/12 09:50:25;;;;;;;49.13;25.37;;;;;;;;;;4926164;29;20024;-65
2023/11/12 09:52:52;;;;;;;45.07;24.83;;;;;;;;;;4929535;29;20594;-67
2023/11/12 09:55:18;;;;;;;47.40;25.47;;;;;;;;;;4928764;29;20043;-66
2023/11/12 09:57:43;;;;;;;53.77;25.90;;;;;;;;;;4929671;29;20512;-65
2023/11/12 10:00:12;;;;;;;44.47;24.17;;;;;;;;;;4929215;29;20290;-66
2023/11/12 10:02:37;;;;;;;46.13;24.30;;;;;;;;;;4929438;29;20023;-66
2023/11/12 10:05:10;;;;;;;39.87;21.63;;;;;;;;;;4938846;29;20043;-67
2023/11/12 10:07:35;;;;;;;40.80;22.67;;;;;;;;;;4942899;29;20023;-66
2023/11/12 10:10:20;;;;;;;41.47;22.13;;;;;;;;;;4930766;29;20020;-66
2023/11/12 10:12:45;;;;;;;47.17;22.90;;;;;;;;;;4932852;29;20027;-67
2023/11/12 10:15:11;;;;;;;41.33;22.03;;;;;;;;;;4936897;29;20027;-66
2023/11/12 10:17:45;;;;;;;37.30;21.63;;;;;;;;;;4934947;29;20532;-66
2023/11/12 10:20:19;;;;;;;42.63;21.97;;;;;;;;;;4934390;29;20549;-65
2023/11/12 10:22:44;;;;;;;33.30;18.83;;;;;;;;;;4940277;29;20027;-65
2023/11/12 10:25:10;;;;;;;34.33;19.33;;;;;;;;;;4928776;29;20477;-66
2023/11/12 10:27:50;;;;;;;34.67;20.07;;;;;;;;;;4931752;29;20028;-67
2023/11/12 10:30:16;;;;;;;34.20;18.70;;;;;;;;;;4931163;29;20122;-62
2023/11/12 10:32:42;;;;;;;33.07;18.70;;;;;;;;;;4927550;29;20091;-66
2023/11/12 10:35:10;;;;;;;37.50;20.80;;;;;;;;;;4931818;29;20039;-67
2023/11/12 10:37:53;;;;;;;34.53;19.60;;;;;;;;;;4920084;29;20381;-67
2023/11/12 10:40:18;;;;;;;41.63;21.83;;;;;;;;;;4924801;29;20399;-66
2023/11/12 10:42:44;;;;;;;38.47;20.63;;;;;;;;;;4925727;29;20043;-67
2023/11/12 10:45:09;;;;;;;36.23;21.97;;;;;;;;;;4923386;29;20028;-67
2023/11/12 10:47:34;;;;;;;38.87;21.87;;;;;;;;;;4932269;29;20023;-67
2023/11/12 10:50:00;;;;;;;34.90;20.10;;;;;;;;;;4939677;29;20118;-66
2023/11/12 10:52:26;;;;;;;35.43;20.93;;;;;;;;;;4932143;29;20382;-65
2023/11/12 10:54:53;;;;;;;34.23;19.20;;;;;;;;;;4925243;29;20031;-65
2023/11/12 10:57:18;;;;;;;33.93;19.07;;;;;;;;;;4924698;29;20038;-65
2023/11/12 10:59:44;;;;;;;33.50;19.57;;;;;;;;;;4925357;29;20373;-66
2023/11/12 11:02:15;;;;;;;32.37;18.83;;;;;;;;;;4922501;29;20412;-66
2023/11/12 11:04:45;;;;;;;32.75;18.60;;;;;;;;;;4924059;29;20036;-66
2023/11/12 11:07:10;;;;;;;35.03;19.60;;;;;;;;;;4924081;29;20473;-67
2023/11/12 11:09:35;;;;;;;32.50;18.13;;;;;;;;;;4922176;29;20496;-66
2023/11/12 11:12:01;;;;;;;30.67;18.70;;;;;;;;;;4927638;29;20502;-65
2023/11/12 11:14:29;;;;;;;31.37;18.97;;;;;;;;;;4909908;29;20603;-65
2023/11/12 11:16:55;;;;;;;29.13;16.43;;;;;;;;;;4929056;29;20027;-65
2023/11/12 11:19:39;;;;;;;30.80;16.57;;;;;;;;;;4925390;29;20130;-66
2023/11/12 11:22:24;;;;;;;29.63;17.37;;;;;;;;;;4926879;29;20035;-65
2023/11/12 11:24:49;;;;;;;35.00;19.33;;;;;;;;;;4923312;29;20032;-65
2023/11/12 11:27:18;;;;;;;36.17;20.07;;;;;;;;;;4924645;29;20551;-66
2023/11/12 11:30:02;;;;;;;35.63;20.17;;;;;;;;;;4928983;29;20438;-66
2023/11/12 11:32:27;;;;;;;36.37;18.60;;;;;;;;;;4926966;29;20029;-68
2023/11/12 11:34:53;;;;;;;38.37;21.93;;;;;;;;;;4923624;29;20028;-68
2023/11/12 11:37:19;;;;;;;38.43;20.97;;;;;;;;;;4924325;29;20066;-67
2023/11/12 11:39:44;;;;;;;37.50;20.50;;;;;;;;;;4925228;29;21834;-67
2023/11/12 11:42:10;;;;;;;33.83;19.53;;;;;;;;;;4923080;29;20126;-68
2023/11/12 11:44:44;;;;;;;34.40;18.90;;;;;;;;;;4929274;29;20038;-67
2023/11/12 11:47:14;;;;;;;34.73;19.93;;;;;;;;;;4924178;29;20062;-67
2023/11/12 11:49:59;;;;;;;32.23;19.77;;;;;;;;;;4927103;29;20024;-68
2023/11/12 11:52:25;;;;;;;35.30;18.97;;;;;;;;;;4921434;29;20045;-67
2023/11/12 11:54:54;;;;;;;32.10;18.10;;;;;;;;;;4928110;29;20038;-67
2023/11/12 11:57:20;;;;;;;27.77;16.43;;;;;;;;;;4929942;29;20033;-67
2023/11/12 11:59:46;;;;;;;32.40;17.50;;;;;;;;;;4924620;29;20449;-67
2023/11/12 12:02:15;;;;;;;25.83;15.27;;;;;;;;;;4925822;29;20036;-67
2023/11/12 12:04:48;;;;;;;27.83;16.73;;;;;;;;;;4926287;29;20392;-67
2023/11/12 12:07:19;;;;;;;27.47;15.23;;;;;;;;;;4927271;29;20035;-67
2023/11/12 12:09:44;;;;;;;25.35;14.38;;;;;;;;;;4921105;29;20432;-67
2023/11/12 12:12:09;;;;;;;27.13;16.37;;;;;;;;;;4923054;29;20035;-67
2023/11/12 12:14:35;;;;;;;26.80;16.50;;;;;;;;;;4928466;29;20078;-67
2023/11/12 12:17:07;;;;;;;27.00;15.87;;;;;;;;;;4923887;29;20035;-68
2023/11/12 12:19:33;;;;;;;28.20;15.47;;;;;;;;;;4931016;29;20038;-68
2023/11/12 12:21:58;;;;;;;27.97;15.07;;;;;;;;;;4926301;29;20034;-67
2023/11/12 12:24:23;;;;;;;27.37;15.20;;;;;;;;;;4929321;29;20438;-67
2023/11/12 12:26:49;;;;;;;25.33;14.60;;;;;;;;;;4923850;29;20024;-69
2023/11/12 12:29:15;;;;;;;25.83;14.73;;;;;;;;;;4924664;29;20114;-69
2023/11/12 12:31:41;;;;;;;27.07;14.53;;;;;;;;;;4920731;29;20047;-69
2023/11/12 12:34:07;;;;;;;24.83;14.83;;;;;;;;;;4925937;29;20503;-68
2023/11/12 12:36:34;;;;;;;26.20;15.23;;;;;;;;;;4921570;29;20107;-69
2023/11/12 12:39:00;;;;;;;25.23;15.17;;;;;;;;;;4932771;29;20513;-69
2023/11/12 12:41:26;;;;;;;30.13;15.50;;;;;;;;;;4929779;29;20572;-68
2023/11/12 12:43:54;;;;;;;29.23;16.60;;;;;;;;;;4926982;29;20073;-68
2023/11/12 12:46:20;;;;;;;31.47;17.03;;;;;;;;;;4927871;29;20242;-68
2023/11/12 12:48:52;;;;;;;29.90;17.10;;;;;;;;;;4908667;29;20404;-68
2023/11/12 12:51:18;;;;;;;30.47;17.83;;;;;;;;;;4925401;29;20061;-67
2023/11/12 12:53:45;;;;;;;29.63;17.60;;;;;;;;;;4924577;29;20802;-68
2023/11/12 12:56:11;;;;;;;27.67;16.60;;;;;;;;;;4923815;29;20727;-67
2023/11/12 12:58:38;;;;;;;25.33;15.93;;;;;;;;;;4923927;29;20027;-68
2023/11/12 13:01:04;;;;;;;28.70;15.37;;;;;;;;;;4923574;29;20051;-69
2023/11/12 13:03:33;;;;;;;29.40;16.00;;;;;;;;;;4923969;29;20027;-67
2023/11/12 13:05:59;;;;;;;26.93;14.67;;;;;;;;;;4910807;29;20028;-66
2023/11/12 13:08:25;;;;;;;24.33;13.87;;;;;;;;;;4921225;29;20019;-69
2023/11/12 13:10:51;;;;;;;24.37;13.50;;;;;;;;;;4924943;29;20113;-69
2023/11/12 13:13:17;;;;;;;21.33;13.00;;;;;;;;;;4915922;29;20063;-69
2023/11/12 13:15:43;;;;;;;24.83;13.90;;;;;;;;;;4924702;29;20082;-67
2023/11/12 13:18:09;;;;;;;22.33;13.07;;;;;;;;;;4912220;29;20119;-68
2023/11/12 13:20:35;;;;;;;21.93;12.10;;;;;;;;;;4936958;29;20038;-68
2023/11/12 13:23:01;;;;;;;21.17;12.20;;;;;;;;;;4913519;29;20024;-67
2023/11/12 13:25:27;;;;;;;24.50;12.60;;;;;;;;;;4924220;29;20023;-68
2023/11/12 13:27:54;;;;;;;23.10;12.70;;;;;;;;;;4915857;29;20290;-69
2023/11/12 13:30:20;;;;;;;20.97;12.17;;;;;;;;;;4928655;29;20032;-69
2023/11/12 13:32:49;;;;;;;24.37;13.07;;;;;;;;;;4918494;29;20042;-67
2023/11/12 13:35:16;;;;;;;21.57;13.23;;;;;;;;;;4931858;29;20457;-67
2023/11/12 13:37:45;;;;;;;24.53;15.40;;;;;;;;;;4928275;29;20050;-67
2023/11/12 13:40:14;;;;;;;26.30;15.27;;;;;;;;;;4936876;29;20074;-67
2023/11/12 13:42:42;;;;;;;26.73;15.10;;;;;;;;;;4925734;29;20420;-68
2023/11/12 13:45:09;;;;;;;23.47;13.37;;;;;;;;;;4929218;29;20532;-67
2023/11/12 13:47:34;;;;;;;24.80;14.50;;;;;;;;;;4917642;29;20032;-67
2023/11/12 13:50:00;;;;;;;23.00;14.43;;;;;;;;;;4929078;29;20191;-67
2023/11/12 13:52:27;;;;;;;26.20;14.83;;;;;;;;;;4931106;29;20031;-68
2023/11/12 13:54:52;;;;;;;24.57;14.03;;;;;;;;;;4934688;29;20078;-67
2023/11/12 13:57:19;;;;;;;29.60;15.00;;;;;;;;;;4929576;29;20349;-67
2023/11/12 13:59:45;;;;;;;23.93;14.23;;;;;;;;;;4924916;29;20496;-66
2023/11/12 14:02:11;;;;;;;24.30;13.93;;;;;;;;;;4929158;28;20508;-66
2023/11/12 14:04:38;;;;;;;26.20;14.70;;;;;;;;;;4937781;29;20070;-66
2023/11/12 14:07:05;;;;;;;22.53;13.97;;;;;;;;;;4925561;29;20336;-61
2023/11/12 14:09:33;;;;;;;27.03;14.73;;;;;;;;;;4935688;29;20041;-65
2023/11/12 14:12:08;;;;;;;28.97;15.30;;;;;;;;;;4927429;29;20532;-67
2023/11/12 14:14:34;;;;;;;25.77;15.37;;;;;;;;;;4934671;29;20411;-68
2023/11/12 14:17:06;;;;;;;27.70;15.37;;;;;;;;;;4928677;29;20035;-66
2023/11/12 14:19:31;;;;;;;;;;;;;;;;;;4930196;29;20078;-68
2023/11/12 14:21:57;;;;;;;26.30;15.30;;;;;;;;;;4932360;29;20415;-66
2023/11/12 14:24:25;;;;;;;28.97;15.67;;;;;;;;;;4924540;29;20239;-67
2023/11/12 14:26:51;;;;;;;27.43;15.73;;;;;;;;;;4933566;29;20110;-66